createdAt,value
2019-02-26T00:00:07.634Z,15.33
2019-02-26T00:02:37.389Z,15.32
2019-02-26T00:05:04.868Z,15.25
2019-02-26T00:07:32.266Z,15.25
2019-02-26T00:10:00.184Z,15.24
2019-02-26T00:12:28.706Z,15.25
2019-02-26T00:14:59.526Z,15.25
2019-02-26T00:17:25.970Z,15.21
2019-02-26T00:19:53.053Z,15.21
2019-02-26T00:22:21.304Z,15.19
2019-02-26T00:24:48.436Z,15.18
2019-02-26T00:27:15.668Z,15.11
2019-02-26T00:29:44.235Z,15.10
2019-02-26T00:32:13.497Z,15.06
2019-02-26T00:34:42.041Z,15.06
2019-02-26T00:37:17.175Z,15.00
2019-02-26T00:39:49.691Z,15.00
2019-02-26T00:42:23.650Z,14.99
2019-02-26T00:44:55.345Z,14.93
2019-02-26T00:47:21.705Z,14.92
2019-02-26T00:49:51.069Z,14.96
2019-02-26T00:52:20.114Z,15.03
2019-02-26T00:54:50.926Z,15.03
2019-02-26T00:57:19.108Z,15.02
2019-02-26T00:59:50.738Z,15.02
2019-02-26T01:02:17.776Z,15.05
2019-02-26T01:04:46.378Z,15.05
2019-02-26T01:07:13.468Z,15.01
2019-02-26T01:09:40.904Z,14.99
2019-02-26T01:12:09.234Z,14.98
2019-02-26T01:14:36.657Z,14.95
2019-02-26T01:17:08.177Z,14.95
2019-02-26T01:19:38.140Z,14.92
2019-02-26T01:22:06.728Z,14.91
2019-02-26T01:24:33.770Z,14.95
2019-02-26T01:27:05.751Z,15.01
2019-02-26T01:29:34.460Z,14.92
2019-02-26T01:32:02.191Z,14.85
2019-02-26T01:34:31.425Z,14.84
2019-02-26T01:36:58.478Z,14.74
2019-02-26T01:39:31.980Z,14.71
2019-02-26T01:41:59.004Z,14.70
2019-02-26T01:44:28.045Z,14.66
2019-02-26T01:46:55.539Z,14.69
2019-02-26T01:49:25.863Z,14.73
2019-02-26T01:51:54.025Z,14.70
2019-02-26T01:54:23.339Z,14.73
2019-02-26T01:56:50.883Z,14.74
2019-02-26T01:59:19.197Z,14.76
2019-02-26T02:01:47.044Z,14.75
2019-02-26T02:04:19.670Z,14.80
2019-02-26T02:06:50.973Z,14.86
2019-02-26T02:09:20.919Z,14.87
2019-02-26T02:11:49.078Z,14.87
2019-02-26T02:14:17.067Z,14.81
2019-02-26T02:16:44.369Z,14.78
2019-02-26T02:19:15.506Z,14.73
2019-02-26T02:21:40.267Z,14.70
2019-02-26T02:24:10.767Z,14.68
2019-02-26T02:26:36.366Z,14.69
2019-02-26T02:29:03.679Z,14.69
2019-02-26T02:31:37.730Z,14.70
2019-02-26T02:34:04.123Z,14.68
2019-02-26T02:36:35.225Z,14.67
2019-02-26T02:39:02.238Z,14.60
2019-02-26T02:41:32.017Z,14.58
2019-02-26T02:43:59.596Z,14.59
2019-02-26T02:46:27.109Z,14.51
2019-02-26T02:48:56.084Z,14.48
2019-02-26T02:51:25.539Z,14.43
2019-02-26T02:53:57.322Z,14.39
2019-02-26T02:56:25.334Z,14.28
2019-02-26T02:58:52.260Z,14.29
2019-02-26T03:01:22.044Z,14.25
2019-02-26T03:03:50.295Z,14.24
2019-02-26T03:06:18.463Z,14.19
2019-02-26T03:08:50.878Z,14.13
2019-02-26T03:11:16.902Z,14.04
2019-02-26T03:13:45.760Z,13.99
2019-02-26T03:16:13.970Z,13.99
2019-02-26T03:18:42.440Z,13.90
2019-02-26T03:21:09.538Z,13.91
2019-02-26T03:23:40.245Z,13.90
2019-02-26T03:26:09.924Z,13.86
2019-02-26T03:28:37.104Z,13.85
2019-02-26T03:31:03.143Z,13.84
2019-02-26T03:33:30.283Z,13.89
2019-02-26T03:36:00.401Z,14.05
2019-02-26T03:38:28.882Z,14.20
2019-02-26T03:40:59.144Z,14.32
2019-02-26T03:43:31.517Z,14.37
2019-02-26T03:45:56.920Z,14.44
2019-02-26T03:48:24.369Z,14.51
2019-02-26T03:50:54.696Z,14.54
2019-02-26T03:53:25.555Z,14.56
2019-02-26T03:55:59.644Z,14.54
2019-02-26T03:58:22.684Z,14.46
2019-02-26T04:00:49.729Z,14.37
2019-02-26T04:03:17.381Z,14.33
2019-02-26T04:05:44.854Z,14.29
2019-02-26T04:08:12.260Z,14.30
2019-02-26T04:10:40.832Z,14.35
2019-02-26T04:13:07.806Z,14.41
2019-02-26T04:15:36.353Z,14.43
2019-02-26T04:18:03.660Z,14.41
2019-02-26T04:20:30.642Z,14.35
2019-02-26T04:23:08.415Z,14.29
2019-02-26T04:25:48.679Z,14.22
2019-02-26T04:33:47.897Z,14.00
2019-02-26T04:36:17.043Z,13.98
2019-02-26T04:38:48.304Z,13.95
2019-02-26T04:41:16.002Z,13.91
2019-02-26T04:43:43.617Z,13.90
2019-02-26T04:46:13.606Z,13.98
2019-02-26T04:48:41.246Z,14.04
2019-02-26T04:51:08.300Z,14.09
2019-02-26T04:53:36.468Z,14.15
2019-02-26T04:56:05.891Z,14.23
2019-02-26T04:58:34.308Z,14.28
2019-02-26T05:01:01.663Z,14.31
2019-02-26T05:03:28.688Z,14.35
2019-02-26T05:05:57.234Z,14.38
2019-02-26T05:08:24.383Z,14.40
2019-02-26T05:10:55.039Z,14.33
2019-02-26T05:13:24.588Z,14.27
2019-02-26T05:15:53.283Z,14.18
2019-02-26T05:18:22.991Z,14.09
2019-02-26T05:20:50.998Z,14.07
2019-02-26T05:23:17.987Z,14.01
2019-02-26T05:25:48.161Z,13.97
2019-02-26T05:28:17.984Z,13.96
2019-02-26T05:30:46.374Z,13.94
2019-02-26T05:33:13.754Z,13.93
2019-02-26T05:35:43.798Z,13.96
2019-02-26T05:38:12.304Z,13.96
2019-02-26T05:40:42.728Z,14.05
2019-02-26T05:43:09.619Z,14.22
2019-02-26T05:45:38.604Z,14.37
2019-02-26T05:48:05.338Z,14.47
2019-02-26T05:50:35.310Z,14.52
2019-02-26T05:53:02.530Z,14.56
2019-02-26T05:55:30.334Z,14.63
2019-02-26T05:57:57.553Z,14.69
2019-02-26T06:00:29.305Z,14.71
2019-02-26T06:02:54.290Z,14.75
2019-02-26T06:05:23.388Z,14.78
2019-02-26T06:07:52.027Z,14.82
2019-02-26T06:10:21.623Z,14.87
2019-02-26T06:12:50.224Z,14.92
2019-02-26T06:15:17.286Z,14.87
2019-02-26T06:17:45.763Z,14.88
2019-02-26T06:20:13.244Z,14.84
2019-02-26T06:22:43.113Z,14.73
2019-02-26T06:25:17.692Z,14.75
2019-02-26T06:27:41.826Z,14.74
2019-02-26T06:30:09.988Z,14.79
2019-02-26T06:32:39.707Z,14.77
2019-02-26T06:35:06.688Z,14.79
2019-02-26T06:37:35.949Z,14.79
2019-02-26T06:40:07.320Z,14.79
2019-02-26T06:42:38.070Z,14.80
2019-02-26T06:45:06.507Z,14.81
2019-02-26T06:47:35.882Z,14.74
2019-02-26T06:50:03.059Z,14.73
2019-02-26T06:52:37.255Z,14.86
2019-02-26T06:55:03.563Z,14.94
2019-02-26T06:57:31.517Z,14.97
2019-02-26T07:00:01.169Z,15.03
2019-02-26T07:02:29.338Z,15.01
2019-02-26T07:04:56.343Z,15.09
2019-02-26T07:07:25.337Z,15.21
2019-02-26T07:09:52.420Z,15.33
2019-02-26T07:12:21.700Z,15.46
2019-02-26T07:14:55.334Z,15.60
2019-02-26T07:17:22.379Z,15.65
2019-02-26T07:19:53.857Z,15.69
2019-02-26T07:22:21.051Z,15.84
2019-02-26T07:24:49.650Z,15.95
2019-02-26T07:27:19.026Z,16.03
2019-02-26T07:29:52.160Z,16.17
2019-02-26T07:32:20.201Z,16.26
2019-02-26T07:34:49.662Z,16.40
2019-02-26T07:37:16.570Z,16.50
2019-02-26T07:39:44.327Z,16.62
2019-02-26T07:42:14.187Z,16.77
2019-02-26T07:44:41.494Z,16.88
2019-02-26T07:47:09.564Z,17.02
2019-02-26T07:49:37.945Z,17.14
2019-02-26T07:52:08.598Z,17.20
2019-02-26T07:54:39.429Z,17.30
2019-02-26T07:57:04.085Z,17.40
2019-02-26T07:59:34.870Z,17.45
2019-02-26T08:02:03.690Z,17.51
2019-02-26T08:04:32.303Z,17.53
2019-02-26T08:07:01.901Z,17.55
2019-02-26T08:09:28.214Z,17.58
2019-02-26T08:11:55.423Z,17.57
2019-02-26T08:14:23.289Z,17.60
2019-02-26T08:16:53.595Z,17.62
2019-02-26T08:19:20.238Z,17.65
2019-02-26T08:21:47.852Z,17.67
2019-02-26T08:24:17.119Z,17.71
2019-02-26T08:26:47.426Z,17.72
2019-02-26T08:29:14.089Z,17.70
2019-02-26T08:31:44.642Z,17.76
2019-02-26T08:34:12.640Z,17.84
2019-02-26T08:36:38.878Z,17.93
2019-02-26T08:39:06.402Z,17.96
2019-02-26T08:41:35.388Z,18.00
2019-02-26T08:44:13.236Z,18.05
2019-02-26T08:46:42.168Z,18.08
2019-02-26T08:49:11.020Z,18.04
2019-02-26T08:51:37.439Z,17.83
2019-02-26T08:54:04.771Z,17.79
2019-02-26T08:56:35.813Z,17.82
2019-02-26T08:59:03.525Z,17.85
2019-02-26T09:01:30.356Z,17.86
2019-02-26T09:03:58.915Z,17.91
2019-02-26T09:06:26.185Z,18.03
2019-02-26T09:08:55.138Z,18.07
2019-02-26T09:11:22.336Z,18.18
2019-02-26T09:13:49.354Z,18.23
2019-02-26T09:16:22.297Z,18.27
2019-02-26T09:18:49.401Z,18.33
2019-02-26T09:21:18.096Z,18.36
2019-02-26T09:23:47.482Z,18.40
2019-02-26T09:26:15.422Z,18.46
2019-02-26T09:28:44.610Z,18.44
2019-02-26T09:31:14.085Z,18.42
2019-02-26T09:33:42.752Z,18.44
2019-02-26T09:36:12.698Z,18.45
2019-02-26T09:38:41.763Z,18.46
2019-02-26T09:41:10.045Z,18.48
2019-02-26T09:43:38.723Z,18.41
2019-02-26T09:46:10.143Z,18.24
2019-02-26T09:48:46.215Z,18.19
2019-02-26T09:51:14.731Z,18.16
2019-02-26T09:53:47.116Z,18.19
2019-02-26T09:56:11.123Z,18.28
2019-02-26T09:58:46.496Z,18.34
2019-02-26T10:01:15.756Z,18.36
2019-02-26T10:03:43.206Z,18.38
2019-02-26T10:06:29.693Z,18.35
2019-02-26T10:08:56.886Z,18.35
2019-02-26T10:11:27.888Z,18.25
2019-02-26T10:13:57.472Z,18.29
2019-02-26T10:16:25.806Z,18.31
2019-02-26T10:18:56.836Z,18.33
2019-02-26T10:21:25.683Z,18.39
2019-02-26T10:23:56.803Z,18.46
2019-02-26T10:26:28.652Z,18.54
2019-02-26T10:28:59.003Z,18.57
2019-02-26T10:31:25.056Z,18.64
2019-02-26T10:33:52.518Z,18.73
2019-02-26T10:36:24.706Z,18.72
2019-02-26T10:38:53.149Z,18.68
2019-02-26T10:41:21.812Z,18.70
2019-02-26T10:43:49.159Z,18.71
2019-02-26T10:46:20.121Z,18.73
2019-02-26T10:48:57.718Z,18.74
2019-02-26T10:51:23.635Z,18.68
2019-02-26T10:53:54.318Z,18.70
2019-02-26T10:56:18.451Z,18.74
2019-02-26T10:58:47.185Z,18.72
2019-02-26T11:01:14.252Z,18.70
2019-02-26T11:03:56.077Z,18.79
2019-02-26T11:06:23.060Z,18.90
2019-02-26T11:08:56.740Z,18.99
2019-02-26T11:11:26.414Z,18.95
2019-02-26T11:13:53.861Z,19.00
2019-02-26T11:16:25.125Z,19.02
2019-02-26T11:18:49.760Z,18.99
2019-02-26T11:21:17.101Z,18.92
2019-02-26T11:23:46.276Z,18.97
2019-02-26T11:26:15.227Z,19.02
2019-02-26T11:28:45.889Z,19.02
2019-02-26T11:31:14.043Z,19.03
2019-02-26T11:33:41.860Z,18.98
2019-02-26T11:36:16.118Z,18.95
2019-02-26T11:38:46.705Z,18.99
2019-02-26T11:41:15.600Z,19.06
2019-02-26T11:43:45.887Z,19.13
2019-02-26T11:46:15.782Z,19.10
2019-02-26T11:48:45.167Z,19.01
2019-02-26T11:51:16.868Z,19.00
2019-02-26T11:53:45.774Z,19.07
2019-02-26T11:56:17.786Z,19.15
2019-02-26T11:58:49.647Z,19.24
2019-02-26T12:01:18.325Z,19.38
2019-02-26T12:03:45.423Z,19.41
2019-02-26T12:06:14.384Z,19.57
2019-02-26T12:08:43.100Z,19.74
2019-02-26T12:11:16.505Z,19.83
2019-02-26T12:13:39.535Z,19.89
2019-02-26T12:16:10.953Z,19.97
2019-02-26T12:18:39.113Z,20.04
2019-02-26T12:21:07.896Z,20.12
2019-02-26T12:23:37.370Z,20.14
2019-02-26T12:26:03.998Z,20.17
2019-02-26T12:28:32.437Z,20.20
2019-02-26T12:31:01.281Z,20.23
2019-02-26T12:33:32.371Z,20.24
2019-02-26T12:35:59.538Z,20.22
2019-02-26T12:38:26.658Z,20.22
2019-02-26T12:40:53.614Z,20.24
2019-02-26T12:43:20.954Z,20.23
2019-02-26T12:45:47.878Z,20.22
2019-02-26T12:48:17.034Z,20.23
2019-02-26T12:50:43.877Z,20.26
2019-02-26T12:53:12.681Z,20.27
2019-02-26T12:55:42.289Z,20.31
2019-02-26T12:58:08.080Z,20.28
2019-02-26T13:00:37.747Z,20.28
2019-02-26T13:03:05.560Z,20.31
2019-02-26T13:05:34.728Z,20.34
2019-02-26T13:08:00.772Z,20.36
2019-02-26T13:10:28.231Z,20.42
2019-02-26T13:13:00.202Z,20.43
2019-02-26T13:15:24.188Z,20.45
2019-02-26T13:17:54.187Z,20.45
2019-02-26T13:20:20.437Z,20.45
2019-02-26T13:22:50.180Z,20.42
2019-02-26T13:25:20.727Z,20.32
2019-02-26T13:27:48.409Z,20.15
2019-02-26T13:30:16.121Z,20.11
2019-02-26T13:32:55.095Z,20.09
2019-02-26T13:35:11.872Z,20.07
2019-02-26T13:37:41.928Z,20.04
2019-02-26T13:40:08.560Z,20.04
2019-02-26T13:42:37.485Z,20.04
2019-02-26T13:45:04.836Z,20.05
2019-02-26T13:47:31.844Z,19.99
2019-02-26T13:49:58.889Z,19.98
2019-02-26T13:52:26.287Z,19.99
2019-02-26T13:54:53.295Z,20.00
2019-02-26T13:57:20.744Z,19.96
2019-02-26T13:59:48.448Z,19.98
2019-02-26T14:02:17.022Z,19.97
2019-02-26T14:04:48.906Z,19.98
2019-02-26T14:07:16.391Z,20.03
2019-02-26T14:09:43.405Z,19.94
2019-02-26T14:12:10.656Z,19.93
2019-02-26T14:14:37.661Z,19.92
2019-02-26T14:17:04.953Z,19.83
2019-02-26T14:19:32.416Z,19.81
2019-02-26T14:22:03.006Z,19.85
2019-02-26T14:24:30.291Z,19.90
2019-02-26T14:26:57.349Z,19.93
2019-02-26T14:29:24.326Z,19.88
2019-02-26T14:31:51.491Z,19.86
2019-02-26T14:34:18.501Z,19.87
2019-02-26T14:36:46.593Z,19.94
2019-02-26T14:39:16.356Z,19.99
2019-02-26T14:41:43.624Z,19.93
2019-02-26T14:44:16.581Z,19.96
2019-02-26T14:46:44.118Z,19.96
2019-02-26T14:49:12.219Z,19.90
2019-02-26T14:51:39.534Z,19.90
2019-02-26T14:54:06.592Z,19.95
2019-02-26T14:56:34.123Z,20.00
2019-02-26T14:59:01.131Z,19.99
2019-02-26T15:01:28.128Z,20.01
2019-02-26T15:03:55.431Z,19.98
2019-02-26T15:06:22.646Z,19.97
2019-02-26T15:08:49.633Z,19.95
2019-02-26T15:11:16.875Z,19.96
2019-02-26T15:13:45.234Z,19.97
2019-02-26T15:16:13.294Z,19.98
2019-02-26T15:18:40.290Z,19.97
2019-02-26T15:21:07.276Z,19.96
2019-02-26T15:23:34.246Z,19.98
2019-02-26T15:26:01.533Z,19.99
2019-02-26T15:28:28.549Z,20.00
2019-02-26T15:30:55.954Z,19.94
2019-02-26T15:33:23.185Z,19.93
2019-02-26T15:35:50.208Z,19.82
2019-02-26T15:38:17.188Z,19.77
2019-02-26T15:40:44.503Z,19.75
2019-02-26T15:43:11.720Z,19.77
2019-02-26T15:45:39.066Z,19.77
2019-02-26T15:48:06.100Z,19.77
2019-02-26T15:50:35.015Z,19.79
2019-02-26T15:53:01.962Z,19.80
2019-02-26T15:55:29.257Z,19.81
2019-02-26T15:57:56.614Z,19.79
2019-02-26T16:00:23.573Z,19.81
2019-02-26T16:02:50.578Z,19.83
2019-02-26T16:05:17.837Z,19.85
2019-02-26T16:07:46.200Z,19.81
2019-02-26T16:10:16.136Z,19.78
2019-02-26T16:12:43.112Z,19.74
2019-02-26T16:15:10.379Z,19.73
2019-02-26T16:17:37.610Z,19.73
2019-02-26T16:20:04.886Z,19.69
2019-02-26T16:22:33.030Z,19.68
2019-02-26T16:25:01.694Z,19.69
2019-02-26T16:27:37.411Z,19.70
2019-02-26T16:29:57.572Z,19.67
2019-02-26T16:32:24.574Z,19.69
2019-02-26T16:34:52.509Z,19.70
2019-02-26T16:37:21.805Z,19.69
2019-02-26T16:39:48.757Z,19.64
2019-02-26T16:42:15.703Z,19.60
2019-02-26T16:44:43.024Z,19.59
2019-02-26T16:47:10.153Z,19.57
2019-02-26T16:49:38.988Z,19.56
2019-02-26T16:52:06.295Z,19.55
2019-02-26T16:54:33.651Z,19.54
2019-02-26T16:57:00.938Z,19.57
2019-02-26T16:59:27.991Z,19.59
2019-02-26T17:01:55.538Z,19.63
2019-02-26T17:04:22.951Z,19.62
2019-02-26T17:06:51.588Z,19.60
2019-02-26T17:09:20.749Z,19.57
2019-02-26T17:11:47.780Z,19.56
2019-02-26T17:14:17.290Z,19.53
2019-02-26T17:16:46.246Z,19.52
2019-02-26T17:19:15.465Z,19.52
2019-02-26T17:21:42.798Z,19.53
2019-02-26T17:24:09.787Z,19.52
2019-02-26T17:26:36.960Z,19.50
2019-02-26T17:29:03.911Z,19.50
2019-02-26T17:31:31.902Z,19.51
2019-02-26T17:33:58.968Z,19.50
2019-02-26T17:36:25.964Z,19.51
2019-02-26T17:38:56.844Z,19.52
2019-02-26T17:41:24.126Z,19.50
2019-02-26T17:43:51.482Z,19.49
2019-02-26T17:46:19.385Z,19.49
2019-02-26T17:48:46.564Z,19.50
2019-02-26T17:51:14.211Z,19.48
2019-02-26T17:53:41.280Z,19.45
2019-02-26T17:56:08.313Z,19.45
2019-02-26T17:58:35.448Z,19.42
2019-02-26T18:01:02.507Z,19.31
2019-02-26T18:03:32.688Z,19.24
2019-02-26T18:05:59.956Z,19.17
2019-02-26T18:08:26.946Z,19.15
2019-02-26T18:10:54.515Z,19.17
2019-02-26T18:13:21.611Z,19.20
2019-02-26T18:15:48.585Z,19.20
2019-02-26T18:18:15.585Z,19.18
2019-02-26T18:20:42.697Z,19.15
2019-02-26T18:23:09.746Z,19.11
2019-02-26T18:25:36.738Z,19.13
2019-02-26T18:28:08.691Z,19.14
2019-02-26T18:30:33.805Z,19.16
2019-02-26T18:33:00.886Z,19.11
2019-02-26T18:35:28.700Z,19.05
2019-02-26T18:38:01.388Z,18.95
2019-02-26T18:40:29.696Z,18.91
2019-02-26T18:42:57.390Z,18.95
2019-02-26T18:45:27.315Z,19.02
2019-02-26T18:47:53.849Z,19.04
2019-02-26T18:50:20.813Z,19.00
2019-02-26T18:52:48.270Z,18.96
2019-02-26T18:55:15.353Z,18.91
2019-02-26T18:57:43.701Z,18.90
2019-02-26T19:00:11.210Z,18.85
2019-02-26T19:02:42.553Z,18.77
2019-02-26T19:05:11.124Z,18.69
2019-02-26T19:07:38.447Z,18.64
2019-02-26T19:10:05.589Z,18.61
2019-02-26T19:12:32.653Z,18.52
2019-02-26T19:14:59.976Z,18.48
2019-02-26T19:17:27.296Z,18.47
2019-02-26T19:19:55.669Z,18.37
2019-02-26T19:22:26.539Z,18.28
2019-02-26T19:24:51.834Z,18.27
2019-02-26T19:27:20.127Z,18.26
2019-02-26T19:29:48.287Z,18.23
2019-02-26T19:32:15.729Z,18.17
2019-02-26T19:34:43.531Z,18.13
2019-02-26T19:37:10.566Z,18.13
2019-02-26T19:39:37.527Z,18.07
2019-02-26T19:42:04.439Z,18.02
2019-02-26T19:44:35.701Z,18.01
2019-02-26T19:47:00.234Z,18.00
2019-02-26T19:49:27.156Z,18.00
2019-02-26T19:51:54.148Z,18.00
2019-02-26T19:54:21.208Z,17.98
2019-02-26T19:56:49.149Z,17.96
2019-02-26T19:59:16.484Z,17.96
2019-02-26T20:01:45.654Z,17.98
2019-02-26T20:04:12.267Z,17.98
2019-02-26T20:06:39.591Z,17.94
2019-02-26T20:09:06.605Z,17.92
2019-02-26T20:11:35.368Z,17.90
2019-02-26T20:14:04.744Z,17.83
2019-02-26T20:16:30.949Z,17.84
2019-02-26T20:18:59.040Z,17.83
2019-02-26T20:21:26.709Z,17.86
2019-02-26T20:23:53.710Z,17.80
2019-02-26T20:26:20.698Z,17.78
2019-02-26T20:28:47.614Z,17.79
2019-02-26T20:31:14.676Z,17.80
2019-02-26T20:33:42.111Z,17.78
2019-02-26T20:36:09.290Z,17.74
2019-02-26T20:38:36.274Z,17.68
2019-02-26T20:41:03.467Z,17.67
2019-02-26T20:43:30.553Z,17.66
2019-02-26T20:45:57.998Z,17.65
2019-02-26T20:48:25.318Z,17.65
2019-02-26T20:50:53.846Z,17.60
2019-02-26T20:53:22.825Z,17.58
2019-02-26T20:55:52.404Z,17.49
2019-02-26T20:58:18.399Z,17.39
2019-02-26T21:00:45.421Z,17.32
2019-02-26T21:03:14.940Z,17.32
2019-02-26T21:05:45.342Z,17.33
2019-02-26T21:10:49.790Z,17.34
2019-02-26T21:13:17.100Z,17.28
2019-02-26T21:15:44.785Z,17.27
2019-02-26T21:18:13.298Z,17.26
2019-02-26T21:20:41.767Z,17.22
2019-02-26T21:23:21.694Z,17.16
2019-02-26T21:25:47.575Z,17.09
2019-02-26T21:28:14.995Z,17.01
2019-02-26T21:30:45.660Z,16.96
2019-02-26T21:33:12.286Z,16.85
2019-02-26T21:35:42.675Z,16.78
2019-02-26T21:38:09.722Z,16.74
2019-02-26T21:40:37.336Z,16.70
2019-02-26T21:43:04.645Z,16.68
2019-02-26T21:45:31.898Z,16.66
2019-02-26T21:48:02.745Z,16.68
2019-02-26T21:53:23.110Z,16.61
2019-02-26T21:55:52.547Z,16.47
2019-02-26T21:58:19.624Z,16.46
2019-02-26T22:00:49.295Z,16.49
2019-02-26T22:03:26.675Z,16.54
2019-02-26T22:06:05.245Z,16.55
2019-02-26T22:08:33.226Z,16.49
2019-02-26T22:11:09.220Z,16.48
2019-02-26T22:13:36.277Z,16.43
2019-02-26T22:16:05.251Z,16.41
2019-02-26T22:18:34.263Z,16.38
2019-02-26T22:21:00.990Z,16.40
2019-02-26T22:23:35.301Z,16.40
2019-02-26T22:26:02.389Z,16.37
2019-02-26T22:28:29.538Z,16.30
2019-02-26T22:30:56.603Z,16.25
2019-02-26T22:33:23.889Z,16.19
2019-02-26T22:35:50.944Z,16.15
2019-02-26T22:38:17.930Z,16.11
2019-02-26T22:40:45.876Z,16.10
2019-02-26T22:43:13.818Z,16.13
2019-02-26T22:45:41.319Z,16.14
2019-02-26T22:48:08.725Z,16.15
2019-02-26T22:50:35.670Z,16.09
2019-02-26T22:53:03.975Z,16.02
2019-02-26T22:55:31.304Z,15.97
2019-02-26T22:58:04.708Z,15.92
2019-02-26T23:00:30.236Z,15.88
2019-02-26T23:03:02.081Z,15.80
2019-02-26T23:05:29.655Z,15.72
2019-02-26T23:07:56.932Z,15.62
2019-02-26T23:10:30.662Z,15.56
2019-02-26T23:12:57.620Z,15.52
2019-02-26T23:15:26.220Z,15.40
2019-02-26T23:17:58.215Z,15.34
2019-02-26T23:20:24.684Z,15.30
2019-02-26T23:22:51.719Z,15.29
2019-02-26T23:25:18.887Z,15.28
2019-02-26T23:27:48.518Z,15.28
2019-02-26T23:30:14.784Z,15.27
2019-02-26T23:32:41.920Z,15.15
2019-02-26T23:35:08.995Z,15.14
2019-02-26T23:37:36.453Z,15.19
2019-02-26T23:40:04.531Z,15.25
2019-02-26T23:42:33.430Z,15.28
2019-02-26T23:45:01.498Z,15.28
2019-02-26T23:47:29.025Z,15.28
2019-02-26T23:49:56.010Z,15.28
2019-02-26T23:52:24.892Z,15.25
2019-02-26T23:54:53.690Z,15.19
2019-02-26T23:57:22.764Z,15.05
2019-02-26T23:59:49.787Z,15.08
